DAAT/TMR METAR and TAF weather

Enter ICAO airport designator
Station Type Date Time Source
DAAT METAR 2018/04/26 15:00 UTC NOAA

DAAT 261500Z 24018G28KT CAVOK 35/// Q1016


Station Type Date Time Source
DAAT Decoded METAR 2018/04/26 15:00 UTC NOAA

Tamanrasset / Aguenna, Algeria (DAAT) 22-49N 005-28E
Apr 26, 2018 - 11:00 AM EDT / 2018.04.26 1500 UTC
Wind: from the WSW (240 degrees) at 21 MPH (18 KT) gusting to 32 MPH (28 KT):0
Visibility: greater than 7 mile(s):0
Temperature: 95 F (35 C)
Pressure (altimeter): 30.00 in. Hg (1016 hPa)
ob: DAAT 261500Z 24018G28KT CAVOK 35/// Q1016
cycle: 15

Station Type Date Time Source
DAAT TAF 2018/04/26 12:33 UTC NOAA

TAF DAAT 261100Z 2612/2712 25012KT 8000 NSC PROB40
TEMPO 2612/2618 25015G25KT 5000 DRSA
BECMG 2620/2624 34012KT


Example: see airport list